Time;durP1;ratioP1;P1;durP2;ratioP2;P2;SDS_P1;SDS_P2;PMS_P1;PMS_P2;Temp;Humidity;BMP_temperature;BMP_pressure;BME280_temperature;BME280_humidity;BME280_pressure;Samples;Min_cycle;Max_cycle;Signal;HPM_P1;HPM_P2
2022/08/08 00:01:16;;;;;;;5.63;4.73;;;19.70;99.90;;;;;;5069406;28;20513;-48
2022/08/08 00:03:54;;;;;;;5.03;4.63;;;19.70;99.90;;;;;;5069402;28;20448;-49
2022/08/08 00:06:42;;;;;;;5.33;4.77;;;19.70;99.90;;;;;;5069088;28;20567;-48
2022/08/08 00:09:17;;;;;;;4.87;4.47;;;19.60;99.90;;;;;;5068931;28;20476;-48
2022/08/08 00:11:47;;;;;;;5.13;4.57;;;19.60;99.90;;;;;;5069269;28;20455;-48
2022/08/08 00:14:30;;;;;;;5.63;5.03;;;19.40;99.90;;;;;;5071516;28;20522;-50
2022/08/08 00:17:08;;;;;;;5.47;4.97;;;19.40;99.90;;;;;;5072675;28;20474;-48
2022/08/08 00:19:44;;;;;;;5.57;5.17;;;19.50;99.90;;;;;;5072526;28;20470;-50
2022/08/08 00:22:17;;;;;;;5.37;4.87;;;19.40;99.90;;;;;;5072437;28;20451;-49
2022/08/08 00:24:49;;;;;;;5.03;4.63;;;19.50;99.90;;;;;;5072761;28;20452;-48
2022/08/08 00:27:19;;;;;;;6.73;4.33;;;19.50;99.90;;;;;;5072668;28;20480;-47
2022/08/08 00:29:54;;;;;;;5.23;4.83;;;19.50;99.90;;;;;;5072235;28;20506;-47
2022/08/08 00:32:28;;;;;;;5.40;4.90;;;19.50;99.90;;;;;;5072368;28;20460;-51
2022/08/08 00:35:25;;;;;;;5.03;4.57;;;19.40;99.90;;;;;;5072670;28;20444;-48
2022/08/08 00:38:30;;;;;;;5.20;4.70;;;19.40;99.90;;;;;;5072623;28;20839;-48
2022/08/08 00:41:23;;;;;;;6.20;4.37;;;19.40;99.90;;;;;;5070310;28;20505;-50
2022/08/08 00:44:11;;;;;;;5.67;5.00;;;19.50;99.90;;;;;;5072263;28;20487;-50
2022/08/08 00:47:17;;;;;;;5.50;5.10;;;19.50;99.90;;;;;;5072595;28;20499;-47
2022/08/08 00:50:22;;;;;;;6.07;5.47;;;19.60;99.90;;;;;;5061240;28;20484;-48
2022/08/08 00:52:56;;;;;;;5.83;5.10;;;19.40;99.90;;;;;;5072131;28;20475;-49
2022/08/08 00:55:48;;;;;;;5.30;4.90;;;19.30;99.90;;;;;;5072229;28;20572;-52
2022/08/08 00:58:57;;;;;;;5.10;4.60;;;19.20;99.90;;;;;;5063114;28;20444;-47
2022/08/08 01:01:32;;;;;;;5.30;4.67;;;19.20;99.90;;;;;;5071934;28;20444;-49
2022/08/08 01:04:38;;;;;;;5.20;4.80;;;19.10;99.90;;;;;;5071981;28;20474;-49
2022/08/08 01:07:35;;;;;;;4.90;4.50;;;19.10;99.90;;;;;;5071682;28;20503;-49
2022/08/08 01:10:32;;;;;;;4.90;4.50;;;19.00;99.90;;;;;;5071669;28;20460;-48
2022/08/08 01:13:55;;;;;;;5.80;4.80;;;19.00;99.90;;;;;;5071700;28;20494;-50
2022/08/08 01:17:11;;;;;;;5.40;5.00;;;18.90;99.90;;;;;;5071475;28;20840;-47
2022/08/08 01:20:16;;;;;;;5.37;4.97;;;19.00;99.90;;;;;;5071347;28;20827;-51
2022/08/08 01:23:34;;;;;;;7.07;5.33;;;19.00;99.90;;;;;;5059358;28;20448;-49
2022/08/08 01:26:20;;;;;;;4.90;4.40;;;19.00;99.90;;;;;;5070333;28;20471;-48
2022/08/08 01:29:16;;;;;;;6.60;6.00;;;19.00;99.90;;;;;;5071148;28;20472;-51
2022/08/08 01:32:16;;;;;;;6.30;5.40;;;19.00;99.90;;;;;;5058120;28;20863;-50
2022/08/08 01:35:14;;;;;;;5.43;4.93;;;19.20;99.90;;;;;;5053698;28;20440;-48
2022/08/08 01:38:27;;;;;;;8.30;5.57;;;19.20;99.90;;;;;;5071403;28;20475;-48
2022/08/08 01:41:01;;;;;;;5.23;4.73;;;19.20;99.90;;;;;;5071027;28;20448;-48
2022/08/08 01:43:39;;;;;;;5.70;5.20;;;19.30;99.90;;;;;;5070927;28;20933;-50
2022/08/08 01:46:30;;;;;;;5.30;4.90;;;19.30;99.90;;;;;;5070903;28;20468;-48
2022/08/08 01:49:04;;;;;;;6.00;5.37;;;19.30;99.90;;;;;;5070713;28;20629;-49
2022/08/08 01:52:00;;;;;;;7.10;5.10;;;19.10;99.90;;;;;;5071228;28;20445;-48
2022/08/08 01:54:56;;;;;;;6.20;4.60;;;19.20;99.90;;;;;;5070967;28;20456;-50
2022/08/08 01:57:30;;;;;;;5.93;5.27;;;19.30;99.90;;;;;;5069399;28;20893;-48
2022/08/08 02:00:17;;;;;;;5.77;5.23;;;19.30;99.90;;;;;;5070407;28;20476;-52
2022/08/08 02:03:06;;;;;;;6.10;5.60;;;19.30;99.90;;;;;;5071112;28;20444;-48
2022/08/08 02:05:44;;;;;;;5.77;5.27;;;19.20;99.90;;;;;;5070537;28;20468;-51
2022/08/08 02:08:19;;;;;;;5.33;4.90;;;19.10;99.90;;;;;;5070929;28;20947;-52
2022/08/08 02:10:59;;;;;;;5.03;4.63;;;19.20;99.90;;;;;;5070238;28;20944;-48
2022/08/08 02:13:32;;;;;;;5.43;4.93;;;19.20;99.90;;;;;;5070516;28;20805;-48
2022/08/08 02:16:09;;;;;;;5.17;4.73;;;19.10;99.90;;;;;;5070588;28;21119;-48
2022/08/08 02:18:42;;;;;;;6.17;4.83;;;19.20;99.90;;;;;;5070560;28;20534;-48
2022/08/08 02:24:09;;;;;;;5.70;5.20;;;19.20;99.90;;;;;;5070282;28;20436;-50
2022/08/08 02:26:43;;;;;;;5.33;4.20;;;19.20;99.90;;;;;;5070115;28;20474;-48
2022/08/08 02:29:37;;;;;;;6.10;4.93;;;19.20;99.90;;;;;;5070311;28;20467;-48
2022/08/08 02:32:26;;;;;;;5.80;5.40;;;19.30;99.90;;;;;;5069948;28;20432;-49
2022/08/08 02:35:14;;;;;;;5.90;5.30;;;19.30;99.90;;;;;;5070483;28;20514;-48
2022/08/08 02:38:05;;;;;;;5.57;5.17;;;19.30;99.90;;;;;;5070007;28;20509;-49
2022/08/08 02:40:42;;;;;;;5.97;5.30;;;19.30;99.90;;;;;;5060811;28;20477;-50
2022/08/08 02:43:47;;;;;;;5.27;4.90;;;19.30;99.90;;;;;;5069996;28;20439;-53
2022/08/08 02:46:36;;;;;;;5.10;4.60;;;19.30;99.90;;;;;;5067977;28;20475;-49
2022/08/08 02:49:38;;;;;;;5.73;5.23;;;19.40;99.90;;;;;;5070306;28;20472;-50
2022/08/08 02:52:30;;;;;;;5.47;4.90;;;19.40;99.90;;;;;;5070161;28;21002;-48
2022/08/08 02:55:18;;;;;;;5.77;5.30;;;19.30;99.90;;;;;;5069850;28;20498;-50
2022/08/08 02:58:33;;;;;;;5.43;4.93;;;19.30;99.90;;;;;;5069832;28;20472;-48
2022/08/08 03:01:25;;;;;;;6.10;5.60;;;19.20;99.90;;;;;;5069699;28;20937;-48
2022/08/08 03:04:33;;;;;;;6.30;5.80;;;19.10;99.90;;;;;;5069972;28;20464;-51
2022/08/08 03:07:48;;;;;;;6.43;5.83;;;19.00;99.90;;;;;;5069669;28;20472;-47
2022/08/08 03:10:36;;;;;;;6.30;5.80;;;19.00;99.90;;;;;;5069721;28;20468;-48
2022/08/08 03:13:28;;;;;;;6.03;5.53;;;19.00;99.90;;;;;;5069946;28;20444;-48
2022/08/08 03:16:20;;;;;;;6.20;5.60;;;19.00;99.90;;;;;;5070325;28;20440;-48
2022/08/08 03:18:57;;;;;;;5.60;4.70;;;19.00;99.90;;;;;;5069586;28;20464;-54
2022/08/08 03:21:24;;;;;;;6.43;5.60;;;18.80;99.90;;;;;;5069701;28;20436;-49
2022/08/08 03:23:52;;;;;;;7.53;6.37;;;18.70;99.90;;;;;;5069717;28;20561;-49
2022/08/08 03:26:26;;;;;;;6.10;5.50;;;18.60;99.90;;;;;;5069538;28;20549;-50
2022/08/08 03:28:58;;;;;;;5.60;5.10;;;18.60;99.90;;;;;;5069213;28;20452;-50
2022/08/08 03:34:25;;;;;;;6.17;5.67;;;18.50;99.90;;;;;;5026822;28;20433;-48
2022/08/08 03:36:52;;;;;;;6.60;6.00;;;18.40;99.90;;;;;;5027054;28;20474;-51
2022/08/08 03:39:21;;;;;;;6.13;5.63;;;18.40;99.90;;;;;;5045012;28;20841;-48
2022/08/08 03:41:48;;;;;;;6.73;6.03;;;18.30;99.90;;;;;;5069617;28;20444;-48
2022/08/08 03:44:15;;;;;;;6.47;5.83;;;18.30;99.90;;;;;;5069972;28;20476;-52
2022/08/08 03:46:46;;;;;;;6.07;5.57;;;18.30;99.90;;;;;;5069239;28;20893;-47
2022/08/08 03:49:18;;;;;;;7.00;6.40;;;18.20;99.90;;;;;;5071563;28;20464;-48
2022/08/08 03:51:47;;;;;;;6.67;6.07;;;18.30;99.90;;;;;;5073241;28;20436;-51
2022/08/08 03:54:14;;;;;;;6.80;6.20;;;18.30;99.90;;;;;;5073153;28;20441;-50
2022/08/08 03:56:43;;;;;;;6.37;5.87;;;18.30;99.90;;;;;;5073193;28;20869;-48
2022/08/08 03:59:10;;;;;;;7.43;6.03;;;18.20;99.90;;;;;;5073746;28;20507;-52
2022/08/08 04:01:38;;;;;;;6.30;5.80;;;18.20;99.90;;;;;;5073030;28;20444;-49
2022/08/08 04:04:06;;;;;;;7.67;6.67;;;18.10;99.90;;;;;;5073042;28;20474;-50
2022/08/08 04:06:33;;;;;;;7.27;6.67;;;17.90;99.90;;;;;;5072827;28;20621;-49
2022/08/08 04:09:01;;;;;;;7.40;6.80;;;17.90;99.90;;;;;;5072591;28;20492;-54
2022/08/08 04:11:28;;;;;;;7.73;7.03;;;17.90;99.90;;;;;;5072908;28;20517;-48
2022/08/08 04:13:57;;;;;;;8.00;7.40;;;17.90;99.90;;;;;;5072828;28;20513;-49
2022/08/08 04:16:24;;;;;;;7.13;6.53;;;17.90;99.90;;;;;;5072633;28;20785;-48
2022/08/08 04:18:51;;;;;;;8.03;7.37;;;17.80;99.90;;;;;;5072536;28;20977;-49
2022/08/08 04:21:18;;;;;;;7.77;7.17;;;17.80;99.90;;;;;;5072543;28;20429;-48
2022/08/08 04:23:45;;;;;;;7.77;7.10;;;17.80;99.90;;;;;;5072739;28;20547;-48
2022/08/08 04:26:12;;;;;;;6.83;6.13;;;17.80;99.90;;;;;;5072980;28;20471;-50
2022/08/08 04:28:39;;;;;;;7.73;7.00;;;17.80;99.90;;;;;;5072412;28;20448;-48
2022/08/08 04:31:08;;;;;;;7.47;6.87;;;17.80;99.90;;;;;;5072330;28;20444;-51
2022/08/08 04:33:35;;;;;;;8.90;8.10;;;17.80;99.90;;;;;;5072505;28;20513;-50
2022/08/08 04:36:02;;;;;;;8.23;7.57;;;17.80;99.90;;;;;;5072444;28;20444;-48
2022/08/08 04:38:29;;;;;;;7.87;7.07;;;17.70;99.90;;;;;;5072256;28;20483;-48
2022/08/08 04:40:56;;;;;;;7.80;7.10;;;17.70;99.90;;;;;;5072467;28;20502;-48
2022/08/08 04:43:23;;;;;;;8.00;7.40;;;17.70;99.90;;;;;;5072282;28;20517;-49
2022/08/08 04:45:50;;;;;;;8.03;7.23;;;17.80;99.90;;;;;;5072204;28;20452;-49
2022/08/08 04:48:19;;;;;;;8.10;7.40;;;17.80;99.90;;;;;;5072128;28;20494;-48
2022/08/08 04:50:46;;;;;;;8.00;7.40;;;18.00;99.90;;;;;;5071938;28;20448;-50
2022/08/08 04:53:13;;;;;;;8.37;7.37;;;18.00;99.90;;;;;;5072066;28;20509;-47
2022/08/08 04:55:40;;;;;;;8.77;7.93;;;17.90;99.90;;;;;;5072079;28;20570;-49
2022/08/08 04:58:12;;;;;;;8.00;7.40;;;17.90;99.90;;;;;;5072084;28;20994;-48
2022/08/08 05:00:39;;;;;;;9.43;8.50;;;17.90;99.90;;;;;;5071617;28;20517;-48
2022/08/08 05:03:06;;;;;;;7.27;6.67;;;17.90;99.90;;;;;;5071829;28;20881;-49
2022/08/08 05:05:35;;;;;;;7.50;6.90;;;18.00;99.90;;;;;;5071945;28;20444;-47
2022/08/08 05:08:02;;;;;;;7.27;6.67;;;17.90;99.90;;;;;;5071545;28;20990;-48
2022/08/08 05:10:29;;;;;;;7.63;6.90;;;17.90;99.90;;;;;;5071667;28;20534;-49
2022/08/08 05:12:57;;;;;;;7.37;6.77;;;17.90;99.90;;;;;;5071840;28;20945;-48
2022/08/08 05:15:24;;;;;;;8.40;7.60;;;17.90;99.90;;;;;;5071688;28;20794;-48
2022/08/08 05:17:51;;;;;;;8.10;7.40;;;18.00;99.90;;;;;;5071679;28;20945;-53
2022/08/08 05:20:18;;;;;;;7.23;6.63;;;18.00;99.90;;;;;;5071174;28;20472;-49
2022/08/08 05:22:46;;;;;;;7.80;7.20;;;18.00;99.90;;;;;;5071588;28;20815;-50
2022/08/08 05:25:14;;;;;;;7.10;6.50;;;18.00;99.90;;;;;;5071811;28;20433;-49
2022/08/08 05:27:40;;;;;;;8.40;7.70;;;18.00;99.90;;;;;;5071231;28;20541;-50
2022/08/08 05:30:09;;;;;;;7.33;6.70;;;18.10;99.90;;;;;;5070951;28;20468;-51
2022/08/08 05:32:37;;;;;;;7.57;6.87;;;18.20;99.90;;;;;;5071544;28;20988;-51
2022/08/08 05:35:06;;;;;;;7.57;6.83;;;18.30;99.90;;;;;;5071619;28;20535;-49
2022/08/08 05:37:38;;;;;;;7.80;7.03;;;18.30;99.90;;;;;;5071307;28;20476;-48
2022/08/08 05:40:09;;;;;;;7.40;6.70;;;18.30;99.90;;;;;;5070849;28;20492;-49
2022/08/08 05:42:41;;;;;;;8.07;7.37;;;18.30;99.90;;;;;;5070840;28;20896;-48
2022/08/08 05:45:11;;;;;;;8.13;7.43;;;18.20;99.90;;;;;;5071339;28;20468;-48
2022/08/08 05:47:39;;;;;;;7.97;7.27;;;18.20;99.90;;;;;;5071054;28;20695;-48
2022/08/08 05:50:06;;;;;;;9.07;8.33;;;18.20;99.90;;;;;;5070793;28;20998;-48
2022/08/08 05:52:35;;;;;;;11.23;7.20;;;18.10;99.90;;;;;;5071007;28;20449;-48
2022/08/08 05:55:02;;;;;;;9.50;7.30;;;18.20;99.90;;;;;;5070916;28;20472;-52
2022/08/08 05:57:34;;;;;;;8.00;7.30;;;18.30;99.90;;;;;;5070895;28;20464;-48
2022/08/08 06:00:06;;;;;;;8.43;7.50;;;18.40;99.90;;;;;;5070345;28;21046;-48
2022/08/08 06:05:21;;;;;;;7.30;6.70;;;18.30;99.90;;;;;;5070695;28;20474;-48
2022/08/08 06:07:49;;;;;;;7.70;6.50;;;18.40;99.90;;;;;;5070448;28;21035;-48
2022/08/08 06:10:16;;;;;;;7.30;6.60;;;18.40;99.90;;;;;;5070287;28;20995;-49
2022/08/08 06:12:45;;;;;;;6.77;6.07;;;18.30;99.90;;;;;;5070279;28;20940;-47
2022/08/08 06:15:12;;;;;;;7.60;6.90;;;18.30;99.90;;;;;;5070507;28;20947;-49
2022/08/08 06:17:41;;;;;;;7.80;6.80;;;18.20;99.90;;;;;;5070460;28;20816;-51
2022/08/08 06:20:10;;;;;;;7.20;6.60;;;18.10;99.90;;;;;;5070090;28;20503;-50
2022/08/08 06:22:37;;;;;;;7.53;6.83;;;18.10;99.90;;;;;;5070452;28;20531;-48
2022/08/08 06:25:04;;;;;;;6.87;6.23;;;18.10;99.90;;;;;;5070403;28;20476;-51
2022/08/08 06:27:36;;;;;;;7.07;6.37;;;18.10;99.90;;;;;;5070306;28;20884;-48
2022/08/08 06:30:07;;;;;;;9.43;6.80;;;18.20;99.90;;;;;;5069568;28;20575;-48
2022/08/08 06:32:40;;;;;;;7.37;6.67;;;18.20;99.90;;;;;;5070416;28;20764;-48
2022/08/08 06:35:11;;;;;;;7.20;6.60;;;18.20;99.90;;;;;;5070297;28;20518;-50
2022/08/08 06:37:43;;;;;;;6.87;6.27;;;18.10;99.90;;;;;;5070387;28;20517;-48
2022/08/08 06:40:13;;;;;;;6.63;6.13;;;18.00;99.90;;;;;;5070353;28;20989;-52
2022/08/08 06:42:46;;;;;;;7.47;6.77;;;18.00;99.90;;;;;;5069973;28;20483;-49
2022/08/08 06:45:15;;;;;;;7.80;7.10;;;18.00;99.90;;;;;;5070214;28;20537;-49
2022/08/08 06:47:42;;;;;;;7.50;6.80;;;18.00;99.90;;;;;;5069906;28;20472;-53
2022/08/08 06:50:11;;;;;;;7.87;7.17;;;18.00;99.90;;;;;;5069713;28;20530;-48
2022/08/08 06:52:39;;;;;;;6.80;6.17;;;18.10;99.90;;;;;;5069891;28;20527;-49
2022/08/08 06:55:07;;;;;;;6.40;5.80;;;18.20;99.90;;;;;;5069809;28;20429;-49
2022/08/08 06:57:34;;;;;;;6.90;6.30;;;18.20;99.90;;;;;;5069937;28;20437;-48
2022/08/08 07:00:03;;;;;;;6.73;6.13;;;18.20;99.90;;;;;;5069639;28;20468;-50
2022/08/08 07:02:34;;;;;;;6.80;6.20;;;18.30;99.90;;;;;;5069739;28;20432;-50
2022/08/08 07:05:04;;;;;;;7.67;7.07;;;18.20;99.90;;;;;;5070412;28;20444;-48
2022/08/08 07:07:41;;;;;;;7.00;6.30;;;18.30;99.90;;;;;;5069669;28;20997;-50
2022/08/08 07:10:10;;;;;;;7.33;6.63;;;18.40;99.90;;;;;;5069649;28;20526;-54
2022/08/08 07:12:40;;;;;;;6.57;6.07;;;18.50;99.90;;;;;;5069831;28;20933;-49
2022/08/08 07:15:10;;;;;;;6.93;6.30;;;18.50;99.90;;;;;;5069768;28;20440;-48
2022/08/08 07:17:45;;;;;;;6.67;5.90;;;18.50;99.90;;;;;;5069710;28;20505;-48
2022/08/08 07:20:18;;;;;;;8.60;7.80;;;18.50;99.90;;;;;;5069269;28;20487;-52
2022/08/08 07:22:54;;;;;;;6.60;6.10;;;18.40;99.90;;;;;;5069905;28;20534;-52
2022/08/08 07:25:24;;;;;;;6.93;6.33;;;18.50;99.90;;;;;;5073981;28;20478;-49
2022/08/08 07:27:53;;;;;;;6.90;6.30;;;18.60;99.90;;;;;;5073689;28;20515;-48
2022/08/08 07:30:20;;;;;;;6.53;5.93;;;18.50;99.90;;;;;;5073334;28;20503;-49
2022/08/08 07:32:50;;;;;;;6.43;5.87;;;18.60;99.90;;;;;;5073920;28;20444;-50
2022/08/08 07:35:17;;;;;;;8.27;6.33;;;18.70;99.90;;;;;;5073763;28;20441;-48
2022/08/08 07:37:46;;;;;;;6.37;5.80;;;18.60;99.90;;;;;;5073663;28;20928;-49
2022/08/08 07:40:14;;;;;;;6.93;6.40;;;18.70;99.90;;;;;;5073149;28;21043;-49
2022/08/08 07:42:42;;;;;;;6.93;6.33;;;18.70;99.90;;;;;;5073214;28;20460;-49
2022/08/08 07:45:10;;;;;;;7.90;6.47;;;18.80;99.90;;;;;;5073501;28;20452;-48
2022/08/08 07:47:37;;;;;;;8.20;7.50;;;18.80;99.90;;;;;;5073384;28;20480;-50
2022/08/08 07:50:07;;;;;;;10.80;7.57;;;18.80;99.90;;;;;;5072855;28;20945;-50
2022/08/08 07:52:34;;;;;;;7.90;7.20;;;18.80;99.90;;;;;;5073228;28;20547;-48
2022/08/08 07:55:06;;;;;;;8.13;7.30;;;18.80;99.90;;;;;;5073166;28;20960;-50
2022/08/08 07:57:45;;;;;;;7.87;7.10;;;18.80;99.90;;;;;;5073355;28;20436;-50
2022/08/08 08:00:14;;;;;;;8.30;7.50;;;18.90;99.90;;;;;;5072673;28;20902;-47
2022/08/08 08:02:44;;;;;;;9.93;6.10;;;18.90;99.90;;;;;;5073001;28;20933;-51
2022/08/08 08:05:20;;;;;;;7.77;6.70;;;18.90;99.90;;;;;;5072968;28;20483;-51
2022/08/08 08:07:49;;;;;;;7.60;6.33;;;19.00;99.90;;;;;;5072694;28;20468;-48
2022/08/08 08:10:18;;;;;;;7.43;6.70;;;19.00;99.90;;;;;;5072839;28;20466;-49
2022/08/08 08:12:53;;;;;;;7.13;6.57;;;19.00;99.90;;;;;;5073138;28;20460;-48
2022/08/08 08:15:25;;;;;;;7.83;7.13;;;19.00;99.90;;;;;;5072945;28;20505;-53
2022/08/08 08:17:58;;;;;;;8.60;7.27;;;19.00;99.90;;;;;;5072738;28;20476;-52
2022/08/08 08:20:29;;;;;;;6.70;6.20;;;19.10;99.90;;;;;;5072390;28;20452;-48
2022/08/08 08:22:56;;;;;;;7.13;6.43;;;19.10;99.90;;;;;;5072541;28;20433;-48
2022/08/08 08:25:23;;;;;;;10.03;7.07;;;19.10;99.90;;;;;;5072523;28;20910;-49
2022/08/08 08:27:50;;;;;;;12.53;6.43;;;19.10;99.90;;;;;;5072156;28;20485;-48
2022/08/08 08:30:17;;;;;;;16.70;7.17;;;19.20;99.90;;;;;;5071805;28;20468;-48
2022/08/08 08:32:44;;;;;;;12.70;7.30;;;19.30;99.90;;;;;;5072481;28;20428;-48
2022/08/08 08:35:11;;;;;;;7.00;6.30;;;19.40;99.90;;;;;;5071953;28;20988;-48
2022/08/08 08:37:40;;;;;;;25.50;7.73;;;19.40;99.90;;;;;;5072796;28;20539;-48
2022/08/08 08:40:08;;;;;;;21.87;7.50;;;19.40;99.90;;;;;;5072281;28;21213;-48
2022/08/08 08:42:36;;;;;;;6.90;6.20;;;19.40;99.90;;;;;;5072143;28;20440;-48
2022/08/08 08:45:04;;;;;;;7.67;6.37;;;19.30;99.90;;;;;;5072284;28;20516;-48
2022/08/08 08:47:32;;;;;;;10.47;6.77;;;19.30;99.90;;;;;;5072155;28;20464;-48
2022/08/08 08:50:00;;;;;;;6.70;5.43;;;19.30;99.90;;;;;;5071874;28;21176;-48
2022/08/08 08:52:27;;;;;;;8.33;5.67;;;19.10;99.90;;;;;;5072028;28;20437;-49
2022/08/08 08:55:00;;;;;;;6.03;5.63;;;19.20;99.90;;;;;;5072076;28;21090;-50
2022/08/08 08:57:27;;;;;;;5.80;5.30;;;19.20;99.90;;;;;;5071885;28;20440;-49
2022/08/08 08:59:57;;;;;;;8.53;5.20;;;19.20;99.90;;;;;;5071637;28;20985;-52
2022/08/08 09:02:25;;;;;;;6.37;5.77;;;19.20;99.90;;;;;;5071851;28;20490;-48
2022/08/08 09:04:56;;;;;;;6.60;6.00;;;19.30;99.90;;;;;;5071839;28;20913;-49
2022/08/08 09:07:24;;;;;;;6.33;5.83;;;19.30;99.90;;;;;;5071649;28;20611;-50
2022/08/08 09:09:57;;;;;;;6.13;5.50;;;19.30;99.90;;;;;;5071379;28;20454;-49
2022/08/08 09:12:26;;;;;;;6.10;5.60;;;19.40;99.90;;;;;;5071970;28;20945;-49
2022/08/08 09:14:56;;;;;;;5.83;5.33;;;19.40;99.90;;;;;;5071829;28;20864;-51
2022/08/08 09:17:24;;;;;;;6.53;5.93;;;19.40;99.90;;;;;;5071511;28;20455;-48
2022/08/08 09:19:55;;;;;;;6.00;5.50;;;19.50;99.90;;;;;;5071397;28;20500;-49
2022/08/08 09:22:22;;;;;;;6.23;5.73;;;19.40;99.90;;;;;;5072210;28;20444;-53
2022/08/08 09:24:51;;;;;;;5.90;5.40;;;19.40;99.90;;;;;;5071478;28;20502;-49
2022/08/08 09:27:20;;;;;;;7.20;6.60;;;19.40;99.90;;;;;;5071321;28;20437;-48
2022/08/08 09:29:52;;;;;;;6.67;6.07;;;19.40;99.90;;;;;;5071275;28;20893;-48
2022/08/08 09:32:32;;;;;;;7.10;6.40;;;19.40;99.90;;;;;;5071539;28;20429;-49
2022/08/08 09:35:02;;;;;;;8.27;7.47;;;19.50;99.90;;;;;;5071438;28;20456;-48
2022/08/08 09:37:34;;;;;;;6.70;6.13;;;19.40;99.90;;;;;;5071327;28;20589;-48
2022/08/08 09:40:04;;;;;;;6.87;6.27;;;19.40;99.90;;;;;;5071103;28;20530;-51
2022/08/08 09:42:36;;;;;;;6.80;6.10;;;19.50;99.90;;;;;;5071066;28;20804;-48
2022/08/08 09:45:07;;;;;;;6.73;6.13;;;19.50;99.90;;;;;;5071281;28;20513;-51
2022/08/08 09:47:36;;;;;;;7.57;6.50;;;19.60;99.90;;;;;;5070461;28;20455;-50
2022/08/08 09:50:06;;;;;;;6.60;6.10;;;19.60;99.90;;;;;;5070727;28;20965;-50
2022/08/08 09:52:35;;;;;;;7.83;7.03;;;19.60;99.90;;;;;;5070933;28;20441;-49
2022/08/08 09:55:03;;;;;;;7.60;6.90;;;19.70;99.90;;;;;;5070761;28;20432;-48
2022/08/08 09:57:36;;;;;;;7.03;6.37;;;19.70;99.90;;;;;;5070896;28;20448;-49
2022/08/08 10:00:06;;;;;;;6.40;5.80;;;19.70;99.90;;;;;;5071450;28;20468;-50
2022/08/08 10:02:36;;;;;;;7.80;7.20;;;19.80;99.90;;;;;;5070918;28;20436;-48
2022/08/08 10:05:05;;;;;;;6.60;6.00;;;19.90;99.90;;;;;;5070665;28;20519;-48
2022/08/08 10:07:32;;;;;;;7.17;6.53;;;19.90;99.90;;;;;;5070927;28;20861;-48
2022/08/08 10:09:59;;;;;;;7.60;6.90;;;19.90;99.90;;;;;;5070260;28;20878;-48
2022/08/08 10:12:36;;;;;;;7.43;6.77;;;19.90;99.90;;;;;;5070687;28;20476;-48
2022/08/08 10:15:07;;;;;;;7.97;7.27;;;20.00;99.90;;;;;;5070651;28;20482;-48
2022/08/08 10:17:44;;;;;;;6.97;6.37;;;20.00;99.90;;;;;;5071007;28;20444;-48
2022/08/08 10:20:12;;;;;;;8.17;7.40;;;20.00;99.90;;;;;;5070664;28;20894;-49
2022/08/08 10:22:45;;;;;;;8.37;7.57;;;20.10;99.90;;;;;;5070372;28;20811;-48
2022/08/08 10:25:19;;;;;;;7.43;6.73;;;20.10;99.90;;;;;;5070315;28;20432;-49
2022/08/08 10:27:52;;;;;;;7.67;7.07;;;20.00;99.90;;;;;;5070401;28;20466;-47
2022/08/08 10:30:21;;;;;;;6.37;5.60;;;20.00;99.90;;;;;;5069479;28;20488;-49
2022/08/08 10:32:52;;;;;;;6.50;6.00;;;20.10;99.90;;;;;;5070374;28;20502;-51
2022/08/08 10:35:22;;;;;;;6.43;5.83;;;20.10;99.90;;;;;;5070367;28;20430;-50
2022/08/08 10:37:55;;;;;;;6.93;6.33;;;20.10;99.90;;;;;;5070202;28;20444;-51
2022/08/08 10:40:23;;;;;;;8.43;7.73;;;20.20;99.90;;;;;;5069722;28;20452;-49
2022/08/08 10:42:56;;;;;;;8.50;6.60;;;20.30;99.90;;;;;;5070211;28;20502;-50
2022/08/08 10:45:23;;;;;;;6.43;5.93;;;20.30;99.90;;;;;;5070165;28;20452;-53
2022/08/08 10:47:55;;;;;;;7.30;6.70;;;20.30;99.90;;;;;;5070114;28;20449;-48
2022/08/08 10:50:31;;;;;;;7.53;6.87;;;20.20;99.90;;;;;;5069894;28;20468;-48
2022/08/08 10:53:03;;;;;;;7.40;6.70;;;20.30;99.90;;;;;;5070139;28;20444;-49
2022/08/08 10:55:30;;;;;;;7.40;6.70;;;20.40;99.90;;;;;;5070020;28;20539;-48
2022/08/08 10:58:02;;;;;;;6.47;5.90;;;20.40;99.90;;;;;;5069980;28;20444;-52
2022/08/08 11:00:29;;;;;;;6.80;6.20;;;20.40;99.90;;;;;;5069741;28;20482;-49
2022/08/08 11:03:09;;;;;;;6.60;6.03;;;20.50;99.90;;;;;;5069975;28;20477;-51
2022/08/08 11:05:42;;;;;;;7.40;6.60;;;20.50;99.90;;;;;;5070060;28;20440;-48
2022/08/08 11:08:20;;;;;;;6.57;5.87;;;20.70;99.90;;;;;;5069826;28;20468;-50
2022/08/08 11:10:47;;;;;;;8.40;7.00;;;20.70;99.90;;;;;;5069877;28;21023;-48
2022/08/08 11:13:21;;;;;;;7.47;6.87;;;20.70;99.90;;;;;;5070093;28;20432;-50
2022/08/08 11:15:49;;;;;;;5.90;5.40;;;20.70;99.90;;;;;;5070057;28;20483;-48
2022/08/08 11:18:17;;;;;;;7.03;6.43;;;20.80;99.90;;;;;;5069957;28;20451;-49
2022/08/08 11:20:45;;;;;;;10.50;7.00;;;20.90;99.90;;;;;;5069979;28;20517;-49
2022/08/08 11:23:12;;;;;;;6.53;5.50;;;21.10;99.90;;;;;;5069899;28;20444;-50
2022/08/08 11:25:40;;;;;;;35.90;10.37;;;21.20;99.90;;;;;;5069880;28;20443;-52
2022/08/08 11:28:11;;;;;;;12.47;6.50;;;21.40;99.90;;;;;;5070165;28;20448;-48
2022/08/08 11:30:42;;;;;;;5.63;5.20;;;21.50;99.90;;;;;;5069295;28;20428;-51
2022/08/08 11:33:10;;;;;;;5.70;5.20;;;21.60;99.90;;;;;;5069483;28;20937;-48
2022/08/08 11:35:37;;;;;;;5.53;5.00;;;21.70;99.90;;;;;;5069640;28;20623;-48
2022/08/08 11:38:05;;;;;;;5.00;4.53;;;21.80;99.90;;;;;;5069728;28;20441;-51
2022/08/08 11:40:32;;;;;;;5.23;4.73;;;21.80;99.90;;;;;;5069923;28;20541;-48
2022/08/08 11:43:00;;;;;;;4.90;4.50;;;21.80;99.90;;;;;;5069722;28;20448;-52
2022/08/08 11:45:29;;;;;;;5.20;3.93;;;21.90;99.90;;;;;;5070024;28;21047;-48
2022/08/08 11:47:58;;;;;;;4.90;4.50;;;21.90;99.90;;;;;;5069539;28;20440;-50
2022/08/08 11:50:26;;;;;;;6.40;5.13;;;21.90;99.90;;;;;;5069576;28;20484;-48
2022/08/08 11:52:56;;;;;;;5.13;4.73;;;21.90;99.90;;;;;;5069445;28;20432;-50
2022/08/08 11:55:25;;;;;;;5.00;4.50;;;21.90;99.90;;;;;;5069263;28;20490;-52
2022/08/08 11:58:00;;;;;;;5.60;5.17;;;21.80;99.90;;;;;;5069285;28;20433;-50
2022/08/08 12:00:28;;;;;;;5.30;4.80;;;21.80;99.90;;;;;;5069360;28;20478;-54
2022/08/08 12:02:58;;;;;;;5.57;5.07;;;21.80;99.90;;;;;;5069159;28;21136;-48
2022/08/08 12:05:37;;;;;;;7.17;5.50;;;21.70;99.90;;;;;;5069151;28;21015;-49
2022/08/08 12:08:05;;;;;;;5.93;5.33;;;21.70;99.90;;;;;;5069280;28;20478;-53
2022/08/08 12:10:32;;;;;;;4.27;3.97;;;21.70;99.90;;;;;;5071873;28;20468;-50
2022/08/08 12:13:04;;;;;;;5.77;5.23;;;21.70;99.90;;;;;;5073038;28;20526;-52
2022/08/08 12:15:34;;;;;;;5.10;4.60;;;21.70;99.90;;;;;;5073129;28;20529;-49
2022/08/08 12:18:14;;;;;;;5.40;4.90;;;21.70;99.90;;;;;;5072784;28;20490;-51
2022/08/08 12:20:41;;;;;;;5.70;4.70;;;21.70;99.90;;;;;;5072699;28;20429;-52
2022/08/08 12:23:08;;;;;;;7.03;5.10;;;21.70;99.90;;;;;;5072864;28;21025;-48
2022/08/08 12:25:36;;;;;;;5.77;5.27;;;21.70;99.90;;;;;;5072535;28;20823;-48
2022/08/08 12:28:11;;;;;;;7.43;4.83;;;21.80;99.90;;;;;;5073177;28;20502;-50
2022/08/08 12:30:39;;;;;;;5.47;4.97;;;21.80;99.90;;;;;;5072166;28;20527;-55
2022/08/08 12:33:18;;;;;;;5.30;4.80;;;21.80;99.90;;;;;;5072595;28;20449;-49
2022/08/08 12:35:46;;;;;;;6.10;5.60;;;21.80;99.90;;;;;;5072714;28;20526;-48
2022/08/08 12:38:13;;;;;;;5.63;4.90;;;21.80;99.90;;;;;;5072201;28;20929;-48
2022/08/08 12:40:43;;;;;;;5.00;4.43;;;21.80;99.90;;;;;;5072403;28;20436;-50
2022/08/08 12:43:12;;;;;;;5.90;5.50;;;21.90;99.90;;;;;;5072625;28;20452;-49
2022/08/08 12:45:41;;;;;;;6.20;5.60;;;21.90;99.90;;;;;;5072444;28;20427;-46
2022/08/08 12:48:19;;;;;;;6.30;5.10;;;21.90;99.90;;;;;;5072358;28;20997;-48
2022/08/08 12:50:49;;;;;;;5.70;5.30;;;21.90;99.90;;;;;;5071959;28;20428;-51
2022/08/08 12:53:24;;;;;;;6.50;5.83;;;21.90;99.90;;;;;;5071813;28;20540;-47
2022/08/08 12:55:56;;;;;;;5.83;5.33;;;21.90;99.90;;;;;;5072024;28;20436;-50
2022/08/08 12:58:23;;;;;;;7.10;6.40;;;21.90;99.90;;;;;;5072010;28;20432;-49
2022/08/08 13:00:50;;;;;;;5.80;5.30;;;21.90;99.90;;;;;;5071932;28;20477;-47
2022/08/08 13:03:26;;;;;;;6.37;5.87;;;21.80;99.90;;;;;;5071939;28;20424;-50
2022/08/08 13:06:08;;;;;;;5.40;5.00;;;21.80;99.90;;;;;;5071627;28;20432;-50
2022/08/08 13:08:41;;;;;;;5.70;5.20;;;21.80;99.90;;;;;;5071933;28;20828;-46
2022/08/08 13:11:18;;;;;;;5.67;5.10;;;21.70;99.90;;;;;;5071433;28;20832;-51
2022/08/08 13:14:00;;;;;;;5.70;5.27;;;21.70;99.90;;;;;;5072021;28;20506;-46
2022/08/08 13:16:28;;;;;;;5.50;5.10;;;21.80;99.90;;;;;;5071843;28;20823;-47
2022/08/08 13:18:58;;;;;;;5.60;5.10;;;21.80;99.90;;;;;;5071373;28;20606;-46
2022/08/08 13:21:25;;;;;;;5.63;5.20;;;21.90;99.90;;;;;;5070413;28;20456;-46
2022/08/08 13:23:52;;;;;;;7.03;6.43;;;21.90;99.90;;;;;;5071648;28;20521;-47
2022/08/08 13:26:19;;;;;;;17.83;5.40;;;21.90;99.90;;;;;;5071510;28;20483;-46
2022/08/08 13:28:46;;;;;;;6.27;5.70;;;21.90;99.90;;;;;;5071250;28;20554;-47